Аэропорт: Челябинск. Челябинск

ICAO: USCC

METAR:
2020-08-09 22:30:00
USCC 092230Z 04004MPS 9999 BKN012CB 17/17 Q0992 R09/190055 TEMPO 2100 -TSRA BR VV004 RMK QFE723
METAR:
2020-08-09 20:00:00
TAF USCC 092000Z 0921/1021 36003G12MPS 6000 -SHRA BKN007CB TEMPO 0921/1005 3100 -TSRA BR VV005 FM100500 36003G12MPS 6000 -SHRA BKN016CB TEMPO 1005/1021 34008G20MPS 3100 -TSRAGR BKN005CB